Time;durP1;ratioP1;P1;durP2;ratioP2;P2;SDS_P1;SDS_P2;PMS_P1;PMS_P2;Temp;Humidity;BMP_temperature;BMP_pressure;BME280_temperature;BME280_humidity;BME280_pressure;Samples;Min_cycle;Max_cycle;Signal;HPM_P1;HPM_P2
2022/05/16 00:01:26;;;;;;;;;12.00;10.00;;;;;;;;5061851;28;45589;-74
2022/05/16 00:03:51;;;;;;;;;10.00;9.67;;;;;;;;5052540;28;45462;-74
2022/05/16 00:06:16;;;;;;;;;9.00;8.00;;;;;;;;5056212;28;45386;-74
2022/05/16 00:08:41;;;;;;;;;12.33;11.67;;;;;;;;5055030;28;45446;-74
2022/05/16 00:11:07;;;;;;;;;11.00;9.67;;;;;;;;5061662;28;46324;-74
2022/05/16 00:13:32;;;;;;;;;8.33;8.33;;;;;;;;5050673;28;45292;-74
2022/05/16 00:15:57;;;;;;;;;11.67;10.00;;;;;;;;5060523;28;45214;-74
2022/05/16 00:18:23;;;;;;;;;13.00;9.33;;;;;;;;5056395;28;45386;-74
2022/05/16 00:20:48;;;;;;;;;13.33;12.33;;;;;;;;5058456;28;47285;-73
2022/05/16 00:23:14;;;;;;;;;12.67;12.33;;;;;;;;5058186;28;45382;-72
2022/05/16 00:25:39;;;;;;;;;13.33;12.33;;;;;;;;5060260;28;45282;-72
2022/05/16 00:28:04;;;;;;;;;14.00;13.33;;;;;;;;5059294;28;45438;-72
2022/05/16 00:30:30;;;;;;;;;12.00;12.00;;;;;;;;5060486;28;45263;-72
2022/05/16 00:32:55;;;;;;;;;13.67;10.33;;;;;;;;5057062;28;45387;-72
2022/05/16 00:35:22;;;;;;;;;14.33;13.67;;;;;;;;5054838;28;45348;-72
2022/05/16 00:37:47;;;;;;;;;10.33;8.33;;;;;;;;5058217;28;45317;-72
2022/05/16 00:40:13;;;;;;;;;10.67;10.67;;;;;;;;5054154;28;45464;-72
2022/05/16 00:42:39;;;;;;;;;12.00;10.67;;;;;;;;5055285;28;45319;-72
2022/05/16 00:45:05;;;;;;;;;11.00;10.33;;;;;;;;5060778;28;45287;-71
2022/05/16 00:47:30;;;;;;;;;11.33;10.33;;;;;;;;5057591;28;45300;-71
2022/05/16 00:49:56;;;;;;;;;9.33;8.00;;;;;;;;5055402;28;45294;-72
2022/05/16 00:52:24;;;;;;;;;8.33;8.00;;;;;;;;5057277;28;45456;-72
2022/05/16 00:54:52;;;;;;;;;9.00;7.00;;;;;;;;5058819;28;45308;-72
2022/05/16 00:57:19;;;;;;;;;10.00;9.33;;;;;;;;5057488;28;45354;-73
2022/05/16 00:59:54;;;;;;;;;11.00;8.00;;;;;;;;5057378;28;46379;-72
2022/05/16 01:05:06;;;;;;;;;6.33;6.33;;;;;;;;5060512;28;45287;-72
2022/05/16 01:07:33;;;;;;;;;9.00;7.00;;;;;;;;5055825;28;45509;-72
2022/05/16 01:09:59;;;;;;;;;6.00;6.00;;;;;;;;5059364;28;45264;-71
2022/05/16 01:12:29;;;;;;;;;6.00;6.00;;;;;;;;5053973;28;45409;-71
2022/05/16 01:14:56;;;;;;;;;6.67;4.67;;;;;;;;5053778;28;45346;-71
2022/05/16 01:17:21;;;;;;;;;9.67;6.00;;;;;;;;5056719;28;46481;-71
2022/05/16 01:19:47;;;;;;;;;6.00;4.67;;;;;;;;5055514;28;45587;-71
2022/05/16 01:22:33;;;;;;;;;6.00;6.00;;;;;;;;5058503;28;45225;-72
2022/05/16 01:25:01;;;;;;;;;6.00;5.00;;;;;;;;5057874;28;45465;-73
2022/05/16 01:27:26;;;;;;;;;4.67;4.67;;;;;;;;5057982;28;45394;-73
2022/05/16 01:29:52;;;;;;;;;5.00;5.00;;;;;;;;5060489;28;45502;-73
2022/05/16 01:32:18;;;;;;;;;5.67;5.67;;;;;;;;5058474;28;45225;-73
2022/05/16 01:34:43;;;;;;;;;5.00;5.00;;;;;;;;5051584;28;45423;-73
2022/05/16 01:37:08;;;;;;;;;4.67;4.67;;;;;;;;5062856;28;47445;-73
2022/05/16 01:39:34;;;;;;;;;3.00;3.00;;;;;;;;5052403;28;46188;-73
2022/05/16 01:41:59;;;;;;;;;4.00;4.00;;;;;;;;5058991;28;45511;-73
2022/05/16 01:44:24;;;;;;;;;5.00;4.67;;;;;;;;5055705;28;45547;-73
2022/05/16 01:46:49;;;;;;;;;5.33;5.33;;;;;;;;5059217;28;45381;-72
2022/05/16 01:49:15;;;;;;;;;6.00;5.00;;;;;;;;5052455;28;45279;-73
2022/05/16 01:51:40;;;;;;;;;5.67;5.67;;;;;;;;5059618;28;45264;-72
2022/05/16 01:54:05;;;;;;;;;7.33;7.33;;;;;;;;5054149;28;45530;-72
2022/05/16 01:56:31;;;;;;;;;10.33;4.67;;;;;;;;5059338;28;45432;-73
2022/05/16 01:58:57;;;;;;;;;7.00;7.00;;;;;;;;5052924;28;45415;-73
2022/05/16 02:01:22;;;;;;;;;6.33;5.00;;;;;;;;5059972;28;45268;-72
2022/05/16 02:03:48;;;;;;;;;5.00;4.67;;;;;;;;5053089;28;45224;-74
2022/05/16 02:06:14;;;;;;;;;7.00;7.00;;;;;;;;5058570;28;47955;-73
2022/05/16 02:08:39;;;;;;;;;6.00;6.00;;;;;;;;5051605;28;47064;-73
2022/05/16 02:11:05;;;;;;;;;7.67;7.67;;;;;;;;5054060;28;45397;-73
2022/05/16 02:13:32;;;;;;;;;7.00;6.33;;;;;;;;5051799;28;45319;-73
2022/05/16 02:15:59;;;;;;;;;7.00;5.33;;;;;;;;5059552;28;45601;-72
2022/05/16 02:18:24;;;;;;;;;7.00;5.33;;;;;;;;5049100;28;46298;-72
2022/05/16 02:20:49;;;;;;;;;7.00;7.00;;;;;;;;5068456;28;46200;-72
2022/05/16 02:25:58;;;;;;;;;7.33;6.33;;;;;;;;5058312;28;45407;-72
2022/05/16 02:28:24;;;;;;;;;7.67;7.67;;;;;;;;5057460;28;45462;-73
2022/05/16 02:30:50;;;;;;;;;8.00;8.00;;;;;;;;5058717;28;45381;-72
2022/05/16 02:33:16;;;;;;;;;7.00;7.00;;;;;;;;5053427;28;45404;-73
2022/05/16 02:35:42;;;;;;;;;11.67;10.00;;;;;;;;5054919;28;45383;-72
2022/05/16 02:38:07;;;;;;;;;7.33;7.00;;;;;;;;5053725;28;46439;-72
2022/05/16 02:40:34;;;;;;;;;10.00;10.00;;;;;;;;5055211;28;45321;-72
2022/05/16 02:42:59;;;;;;;;;9.00;8.33;;;;;;;;5053985;28;45567;-72
2022/05/16 02:45:27;;;;;;;;;8.33;8.00;;;;;;;;5057593;28;46255;-73
2022/05/16 02:47:52;;;;;;;;;7.33;7.33;;;;;;;;5054718;28;46094;-73
2022/05/16 02:50:18;;;;;;;;;10.33;9.00;;;;;;;;5052229;28;45241;-73
2022/05/16 02:52:43;;;;;;;;;9.00;9.00;;;;;;;;5052908;28;45507;-73
2022/05/16 02:55:09;;;;;;;;;12.00;10.00;;;;;;;;5054590;28;45649;-73
2022/05/16 02:57:34;;;;;;;;;10.00;8.67;;;;;;;;5053710;28;45354;-73
2022/05/16 03:00:00;;;;;;;;;11.33;9.33;;;;;;;;5057363;28;45335;-73
2022/05/16 03:02:25;;;;;;;;;10.00;8.33;;;;;;;;5055273;28;45264;-73
2022/05/16 03:04:51;;;;;;;;;11.67;11.67;;;;;;;;5056136;28;45358;-73
2022/05/16 03:07:17;;;;;;;;;9.00;9.00;;;;;;;;5054473;28;46590;-73
2022/05/16 03:09:42;;;;;;;;;11.00;9.00;;;;;;;;5058213;28;45325;-73
2022/05/16 03:12:07;;;;;;;;;10.67;10.67;;;;;;;;5057147;28;45246;-73
2022/05/16 03:14:35;;;;;;;;;12.00;12.00;;;;;;;;5050201;28;45222;-73
2022/05/16 03:17:01;;;;;;;;;12.00;10.67;;;;;;;;5056829;28;45315;-73
2022/05/16 03:19:26;;;;;;;;;12.00;10.67;;;;;;;;5052356;28;45519;-73
2022/05/16 03:21:51;;;;;;;;;11.00;9.67;;;;;;;;5057247;28;45319;-73
2022/05/16 03:24:16;;;;;;;;;15.00;13.00;;;;;;;;5055640;28;45293;-73
2022/05/16 03:26:42;;;;;;;;;13.00;11.00;;;;;;;;5058657;28;45341;-73
2022/05/16 03:29:07;;;;;;;;;13.33;13.33;;;;;;;;5056594;28;45279;-73
2022/05/16 03:31:33;;;;;;;;;13.33;12.33;;;;;;;;5059356;28;45370;-73
2022/05/16 03:33:59;;;;;;;;;15.00;13.00;;;;;;;;5056241;28;45353;-74
2022/05/16 03:36:24;;;;;;;;;9.33;8.33;;;;;;;;5058638;28;45413;-73
2022/05/16 03:41:33;;;;;;;;;12.00;12.00;;;;;;;;5058875;28;45369;-73
2022/05/16 03:43:58;;;;;;;;;15.67;15.67;;;;;;;;5052339;28;45258;-73
2022/05/16 03:46:24;;;;;;;;;12.67;12.67;;;;;;;;5058396;28;45249;-74
2022/05/16 03:48:49;;;;;;;;;19.00;13.00;;;;;;;;5048374;28;45462;-74
2022/05/16 03:51:15;;;;;;;;;15.00;15.00;;;;;;;;5058745;28;45399;-73
2022/05/16 03:53:46;;;;;;;;;13.33;13.33;;;;;;;;5051736;28;45488;-73
2022/05/16 03:56:12;;;;;;;;;15.00;14.00;;;;;;;;5056821;28;47317;-73
2022/05/16 03:58:37;;;;;;;;;17.00;17.00;;;;;;;;5048737;28;45454;-73
2022/05/16 04:01:02;;;;;;;;;24.00;17.33;;;;;;;;5056866;28;45422;-74
2022/05/16 04:03:27;;;;;;;;;16.00;15.00;;;;;;;;5052941;28;45710;-74
2022/05/16 04:05:53;;;;;;;;;16.33;15.00;;;;;;;;5058723;28;47107;-74
2022/05/16 04:08:18;;;;;;;;;19.33;17.00;;;;;;;;5054763;28;45317;-73
2022/05/16 04:10:43;;;;;;;;;19.67;15.67;;;;;;;;5060036;28;45438;-73
2022/05/16 04:13:08;;;;;;;;;14.33;14.00;;;;;;;;5050629;28;46091;-74
2022/05/16 04:15:33;;;;;;;;;18.67;16.67;;;;;;;;5061137;28;46119;-74
2022/05/16 04:17:59;;;;;;;;;17.00;16.00;;;;;;;;5056040;28;45363;-73
2022/05/16 04:20:24;;;;;;;;;18.33;17.00;;;;;;;;5061141;28;45300;-73
2022/05/16 04:22:49;;;;;;;;;16.33;16.33;;;;;;;;5057086;28;45236;-74
2022/05/16 04:25:16;;;;;;;;;19.00;17.33;;;;;;;;5058858;28;46115;-74
2022/05/16 04:27:41;;;;;;;;;16.00;16.00;;;;;;;;5057799;28;45296;-74
2022/05/16 04:30:07;;;;;;;;;24.33;18.33;;;;;;;;5060767;28;45454;-74
2022/05/16 04:32:32;;;;;;;;;15.33;13.67;;;;;;;;5060709;28;45513;-74
2022/05/16 04:34:57;;;;;;;;;18.33;16.33;;;;;;;;5049968;28;46408;-74
2022/05/16 04:37:22;;;;;;;;;18.33;17.67;;;;;;;;5055341;28;45327;-73
2022/05/16 04:39:48;;;;;;;;;18.00;16.50;;;;;;;;5060250;28;45299;-73
2022/05/16 04:44:57;;;;;;;;;17.33;16.00;;;;;;;;5052024;28;45667;-73
2022/05/16 04:47:22;;;;;;;;;25.00;18.33;;;;;;;;5058025;28;44769;-73
2022/05/16 04:49:48;;;;;;;;;20.00;16.33;;;;;;;;5057639;28;45748;-74
2022/05/16 04:52:13;;;;;;;;;19.33;17.67;;;;;;;;5058620;28;45414;-74
2022/05/16 04:54:40;;;;;;;;;17.33;17.33;;;;;;;;5056211;28;45382;-75
2022/05/16 04:57:05;;;;;;;;;23.33;16.67;;;;;;;;5059049;28;45369;-74
2022/05/16 04:59:30;;;;;;;;;20.67;18.33;;;;;;;;5055709;28;45319;-74
2022/05/16 05:01:55;;;;;;;;;21.67;20.00;;;;;;;;5058751;28;45421;-74
2022/05/16 05:04:21;;;;;;;;;19.33;18.00;;;;;;;;5051426;28;47568;-74
2022/05/16 05:06:47;;;;;;;;;26.00;20.67;;;;;;;;5058081;28;45418;-74
2022/05/16 05:09:12;;;;;;;;;19.67;19.67;;;;;;;;5059123;28;45327;-73
2022/05/16 05:14:33;;;;;;;;;22.33;20.67;;;;;;;;5056439;28;45942;-74
2022/05/16 05:16:59;;;;;;;;;20.00;18.67;;;;;;;;5058278;28;45445;-74
2022/05/16 05:19:25;;;;;;;;;22.00;20.67;;;;;;;;5055664;28;45457;-74
2022/05/16 05:21:50;;;;;;;;;20.67;20.67;;;;;;;;5059240;28;45346;-74
2022/05/16 05:24:15;;;;;;;;;22.33;21.67;;;;;;;;5056983;28;45484;-74
2022/05/16 05:26:42;;;;;;;;;23.67;19.33;;;;;;;;5060926;28;45375;-75
2022/05/16 05:29:08;;;;;;;;;28.00;22.33;;;;;;;;5047822;28;45371;-75
2022/05/16 05:31:33;;;;;;;;;23.33;20.00;;;;;;;;5059331;28;46355;-75
2022/05/16 05:33:59;;;;;;;;;24.33;23.33;;;;;;;;5050800;28;46066;-75
2022/05/16 05:36:27;;;;;;;;;18.67;17.67;;;;;;;;5061315;28;45514;-75
2022/05/16 05:38:52;;;;;;;;;24.33;21.00;;;;;;;;5053857;28;45699;-74
2022/05/16 05:41:18;;;;;;;;;22.00;21.33;;;;;;;;5060264;28;45232;-75
2022/05/16 05:43:44;;;;;;;;;25.67;23.00;;;;;;;;5050654;28;47168;-74
2022/05/16 05:46:09;;;;;;;;;28.33;24.33;;;;;;;;5059939;28;45251;-74
2022/05/16 05:48:34;;;;;;;;;22.00;21.00;;;;;;;;5053024;28;45289;-73
2022/05/16 05:50:59;;;;;;;;;20.00;20.00;;;;;;;;5059477;28;45437;-74
2022/05/16 05:53:25;;;;;;;;;22.33;18.67;;;;;;;;5052928;28;47144;-74
2022/05/16 05:55:50;;;;;;;;;25.33;20.67;;;;;;;;5058099;28;45331;-75
2022/05/16 05:58:16;;;;;;;;;21.67;20.00;;;;;;;;5048206;28;45216;-75
2022/05/16 06:00:42;;;;;;;;;22.33;18.00;;;;;;;;5059694;28;45438;-74
2022/05/16 06:03:07;;;;;;;;;17.67;17.33;;;;;;;;5051258;28;46950;-75
2022/05/16 06:05:32;;;;;;;;;21.67;19.67;;;;;;;;5080359;27;45336;-74
2022/05/16 06:07:58;;;;;;;;;17.67;17.33;;;;;;;;5049138;28;45324;-74
2022/05/16 06:10:23;;;;;;;;;17.00;16.33;;;;;;;;5052259;28;45258;-74
2022/05/16 06:12:48;;;;;;;;;22.67;20.67;;;;;;;;5055044;28;46331;-75
2022/05/16 06:15:14;;;;;;;;;16.00;16.00;;;;;;;;5058050;28;45177;-74
2022/05/16 06:17:39;;;;;;;;;21.00;18.00;;;;;;;;5056853;28;45383;-74
2022/05/16 06:20:05;;;;;;;;;21.67;20.00;;;;;;;;5058997;28;46031;-74
2022/05/16 06:22:34;;;;;;;;;20.33;19.00;;;;;;;;5056539;28;47612;-74
2022/05/16 06:27:43;;;;;;;;;22.00;16.00;;;;;;;;5056234;28;45480;-74
2022/05/16 06:30:11;;;;;;;;;19.33;17.00;;;;;;;;5050564;28;45454;-74
2022/05/16 06:32:36;;;;;;;;;18.00;18.00;;;;;;;;5057487;28;45488;-74
2022/05/16 06:35:01;;;;;;;;;20.67;17.67;;;;;;;;5052912;28;45355;-74
2022/05/16 06:37:26;;;;;;;;;18.67;18.00;;;;;;;;5057356;28;45595;-74
2022/05/16 06:39:51;;;;;;;;;21.67;18.33;;;;;;;;5057010;28;45441;-75
2022/05/16 06:42:17;;;;;;;;;18.33;17.33;;;;;;;;5055781;28;45303;-76
2022/05/16 06:44:42;;;;;;;;;16.33;16.33;;;;;;;;5054679;28;45430;-75
2022/05/16 06:47:08;;;;;;;;;16.67;16.00;;;;;;;;5045469;28;45738;-74
2022/05/16 06:49:33;;;;;;;;;22.00;19.00;;;;;;;;5058176;28;45323;-74
2022/05/16 06:51:58;;;;;;;;;17.33;16.00;;;;;;;;5057674;28;46327;-74
2022/05/16 06:54:23;;;;;;;;;19.67;16.33;;;;;;;;5054285;28;45348;-74
2022/05/16 06:56:48;;;;;;;;;18.67;18.67;;;;;;;;5057748;28;45237;-74
2022/05/16 06:59:14;;;;;;;;;18.33;16.00;;;;;;;;5056597;28;46888;-74
2022/05/16 07:01:39;;;;;;;;;11.67;9.00;;;;;;;;5057073;28;46100;-74
2022/05/16 07:04:05;;;;;;;;;18.00;15.00;;;;;;;;5052184;28;45212;-74
2022/05/16 07:06:30;;;;;;;;;13.33;12.67;;;;;;;;5056243;28;45461;-74
2022/05/16 07:08:55;;;;;;;;;17.67;16.00;;;;;;;;5051940;28;45447;-74
2022/05/16 07:11:21;;;;;;;;;12.33;11.33;;;;;;;;5058619;28;45326;-74
2022/05/16 07:13:46;;;;;;;;;13.00;13.00;;;;;;;;5052706;28;45275;-74
2022/05/16 07:16:11;;;;;;;;;15.33;14.67;;;;;;;;5054692;28;45484;-74
2022/05/16 07:18:36;;;;;;;;;11.00;9.00;;;;;;;;5053788;28;45414;-73
2022/05/16 07:21:02;;;;;;;;;15.00;12.33;;;;;;;;5055993;28;46697;-74
2022/05/16 07:23:27;;;;;;;;;18.33;15.67;;;;;;;;5054965;28;45288;-73
2022/05/16 07:28:36;;;;;;;;;15.33;12.67;;;;;;;;5055536;28;45383;-74
2022/05/16 07:31:01;;;;;;;;;17.67;15.67;;;;;;;;5057767;28;45370;-72
2022/05/16 07:33:26;;;;;;;;;13.33;12.33;;;;;;;;5050874;28;45265;-72
2022/05/16 07:35:52;;;;;;;;;11.67;10.00;;;;;;;;5056899;28;45185;-72
2022/05/16 07:38:22;;;;;;;;;11.00;11.00;;;;;;;;5056144;28;45273;-72
2022/05/16 07:40:47;;;;;;;;;13.67;12.00;;;;;;;;5059710;28;45477;-74
2022/05/16 07:43:12;;;;;;;;;13.00;12.00;;;;;;;;5055180;28;45332;-73
2022/05/16 07:45:38;;;;;;;;;12.00;12.00;;;;;;;;5059694;28;45471;-74
2022/05/16 07:48:03;;;;;;;;;11.67;11.67;;;;;;;;5053904;28;46428;-74
2022/05/16 07:50:29;;;;;;;;;13.00;12.00;;;;;;;;5061363;28;46036;-74
2022/05/16 07:52:54;;;;;;;;;11.00;10.67;;;;;;;;5061501;28;45607;-74
2022/05/16 07:55:21;;;;;;;;;14.00;14.00;;;;;;;;5059929;28;44789;-73
2022/05/16 07:57:47;;;;;;;;;12.33;12.33;;;;;;;;5058027;28;45546;-74
2022/05/16 08:00:12;;;;;;;;;15.00;11.67;;;;;;;;5061122;28;45532;-73
2022/05/16 08:02:39;;;;;;;;;11.67;10.67;;;;;;;;5056504;28;45331;-74
2022/05/16 08:05:04;;;;;;;;;10.00;10.00;;;;;;;;5060114;28;45499;-74
2022/05/16 08:07:30;;;;;;;;;11.33;9.00;;;;;;;;5057349;28;45456;-74
2022/05/16 08:12:40;;;;;;;;;12.33;10.67;;;;;;;;5055906;28;45363;-72
2022/05/16 08:15:06;;;;;;;;;12.33;9.33;;;;;;;;5055403;28;45335;-72
2022/05/16 08:17:32;;;;;;;;;11.33;10.00;;;;;;;;5057380;28;45492;-73
2022/05/16 08:19:57;;;;;;;;;13.00;12.33;;;;;;;;5058706;28;45280;-73
2022/05/16 08:22:30;;;;;;;;;13.33;12.33;;;;;;;;5059237;28;45413;-74
2022/05/16 08:24:56;;;;;;;;;12.00;11.00;;;;;;;;5049864;28;45359;-74
2022/05/16 08:27:21;;;;;;;;;11.33;9.00;;;;;;;;5058390;28;45452;-74
2022/05/16 08:29:46;;;;;;;;;8.33;8.33;;;;;;;;5059988;28;45288;-75
2022/05/16 08:32:20;;;;;;;;;10.67;8.67;;;;;;;;5058941;28;45316;-75
2022/05/16 08:34:45;;;;;;;;;10.00;8.67;;;;;;;;5048369;28;45406;-75
2022/05/16 08:40:01;;;;;;;;;10.67;9.00;;;;;;;;5050710;28;45777;-74
2022/05/16 08:42:39;;;;;;;;;10.00;10.00;;;;;;;;5057326;28;45414;-75
2022/05/16 08:45:10;;;;;;;;;8.33;7.67;;;;;;;;5059433;28;45351;-75
2022/05/16 08:47:52;;;;;;;;;12.33;10.33;;;;;;;;5055260;28;45320;-75
2022/05/16 08:50:19;;;;;;;;;10.67;9.67;;;;;;;;5071362;28;46527;-75
2022/05/16 08:53:07;;;;;;;;;12.33;9.67;;;;;;;;5054219;28;45952;-75
2022/05/16 08:55:33;;;;;;;;;10.33;9.33;;;;;;;;5059681;28;45236;-75
2022/05/16 08:58:14;;;;;;;;;12.33;8.00;;;;;;;;5053902;28;45395;-75
2022/05/16 09:00:59;;;;;;;;;12.67;11.00;;;;;;;;5060801;28;47298;-76
2022/05/16 09:03:27;;;;;;;;;8.33;8.33;;;;;;;;5055838;28;45209;-75
2022/05/16 09:05:57;;;;;;;;;8.67;8.00;;;;;;;;5058571;28;45303;-74
2022/05/16 09:08:35;;;;;;;;;9.00;9.00;;;;;;;;5051954;28;45520;-75
2022/05/16 09:11:09;;;;;;;;;10.33;8.00;;;;;;;;5060352;28;45745;-75
2022/05/16 09:13:47;;;;;;;;;9.00;9.00;;;;;;;;5057625;28;45481;-74
2022/05/16 09:16:31;;;;;;;;;8.67;7.67;;;;;;;;5056586;28;45450;-75
2022/05/16 09:19:14;;;;;;;;;8.00;8.00;;;;;;;;5054853;28;45455;-73
2022/05/16 09:22:05;;;;;;;;;9.00;9.00;;;;;;;;5047197;28;46107;-73
2022/05/16 09:24:35;;;;;;;;;12.00;8.00;;;;;;;;5034867;28;45784;-74
2022/05/16 09:27:00;;;;;;;;;7.00;7.00;;;;;;;;5058444;28;45430;-74
2022/05/16 09:29:28;;;;;;;;;7.00;7.00;;;;;;;;5059090;28;45202;-75
2022/05/16 09:31:56;;;;;;;;;10.67;9.00;;;;;;;;5059078;28;45489;-74
2022/05/16 09:34:21;;;;;;;;;7.67;6.00;;;;;;;;5050470;28;45447;-75
2022/05/16 09:36:49;;;;;;;;;9.33;8.00;;;;;;;;5057240;28;45497;-76
2022/05/16 09:39:17;;;;;;;;;9.00;8.00;;;;;;;;5051688;28;45437;-74
2022/05/16 09:41:53;;;;;;;;;14.00;9.33;;;;;;;;5060822;28;45291;-75
2022/05/16 09:44:30;;;;;;;;;10.00;9.00;;;;;;;;5084950;27;45238;-75
2022/05/16 09:47:14;;;;;;;;;9.00;9.00;;;;;;;;5059243;28;45316;-75
2022/05/16 09:49:41;;;;;;;;;9.33;9.00;;;;;;;;5071799;28;47131;-75
2022/05/16 09:52:06;;;;;;;;;9.67;7.67;;;;;;;;5086621;27;48677;-75
2022/05/16 09:54:35;;;;;;;;;8.00;7.25;;;;;;;;5055236;28;45375;-76
2022/05/16 09:57:08;;;;;;;;;7.00;5.75;;;;;;;;5058181;28;45355;-75
2022/05/16 09:59:34;;;;;;;;;7.75;7.75;;;;;;;;5050135;28;45866;-75
2022/05/16 10:02:07;;;;;;;;;7.25;7.00;;;;;;;;5040340;28;46279;-73
2022/05/16 10:04:38;;;;;;;;;5.25;5.25;;;;;;;;5054996;28;46150;-73
2022/05/16 10:07:04;;;;;;;;;11.25;8.50;;;;;;;;5057351;28;45555;-72
2022/05/16 10:09:33;;;;;;;;;9.50;6.75;;;;;;;;5059006;28;46417;-72
2022/05/16 10:11:59;;;;;;;;;8.50;7.50;;;;;;;;5056095;28;45452;-72
2022/05/16 10:14:25;;;;;;;;;8.50;7.00;;;;;;;;5058005;28;45415;-74
2022/05/16 10:16:51;;;;;;;;;8.25;8.00;;;;;;;;5055977;28;45292;-72
2022/05/16 10:19:19;;;;;;;;;8.00;7.00;;;;;;;;5053851;28;45387;-72
2022/05/16 10:21:55;;;;;;;;;9.00;6.50;;;;;;;;5049902;28;46282;-75
2022/05/16 10:24:23;;;;;;;;;7.75;6.75;;;;;;;;5057948;28;45429;-73
2022/05/16 10:26:51;;;;;;;;;6.25;6.25;;;;;;;;5057280;28;45459;-74
2022/05/16 10:29:23;;;;;;;;;5.25;5.25;;;;;;;;5056532;28;45386;-73
2022/05/16 10:34:40;;;;;;;;;7.25;6.00;;;;;;;;5058513;28;45225;-73
2022/05/16 10:37:06;;;;;;;;;2.00;2.00;;;;;;;;5056266;28;45324;-73
2022/05/16 10:39:33;;;;;;;;;5.25;3.50;;;;;;;;5058371;28;45349;-73
2022/05/16 10:42:10;;;;;;;;;2.25;2.25;;;;;;;;5077384;27;47737;-74
2022/05/16 10:44:44;;;;;;;;;5.00;5.00;;;;;;;;5047442;28;45621;-73
2022/05/16 10:47:12;;;;;;;;;6.00;4.80;;;;;;;;5053925;28;45418;-73
2022/05/16 10:50:04;;;;;;;;;5.00;5.00;;;;;;;;5054206;28;45265;-73
2022/05/16 10:52:52;;;;;;;;;7.00;4.60;;;;;;;;5029522;28;47325;-73
2022/05/16 10:55:18;;;;;;;;;4.20;4.20;;;;;;;;5037144;28;45835;-75
2022/05/16 10:58:22;;;;;;;;;6.75;5.00;;;;;;;;5053571;28;45405;-75
2022/05/16 11:00:52;;;;;;;;;5.50;4.50;;;;;;;;5011121;28;47075;-74
2022/05/16 11:03:36;;;;;;;;;2.80;2.80;;;;;;;;5031437;28;48543;-75
2022/05/16 11:06:01;;;;;;;;;4.60;3.80;;;;;;;;5040698;28;45422;-74
2022/05/16 11:08:37;;;;;;;;;3.50;3.50;;;;;;;;5051795;28;45468;-77
2022/05/16 11:11:03;;;;;;;;;2.40;2.20;;;;;;;;5053676;28;45411;-76
2022/05/16 11:13:47;;;;;;;;;4.25;4.00;;;;;;;;5048530;28;47128;-76
2022/05/16 11:16:15;;;;;;;;;4.00;4.00;;;;;;;;5054159;28;45621;-75
2022/05/16 11:18:59;;;;;;;;;2.00;2.00;;;;;;;;5054241;28;45331;-75
2022/05/16 11:21:33;;;;;;;;;3.40;2.40;;;;;;;;5072627;28;47795;-75
2022/05/16 11:24:17;;;;;;;;;3.40;3.40;;;;;;;;5055113;28;45265;-75
2022/05/16 11:26:49;;;;;;;;;3.80;3.00;;;;;;;;5047237;28;45298;-76
2022/05/16 11:29:26;;;;;;;;;4.20;3.80;;;;;;;;5056869;28;45711;-75
2022/05/16 11:31:58;;;;;;;;;3.40;2.20;;;;;;;;5056411;28;46532;-76
2022/05/16 11:34:33;;;;;;;;;4.00;3.00;;;;;;;;5046643;28;45893;-75
2022/05/16 11:37:21;;;;;;;;;4.00;4.00;;;;;;;;5057019;28;45319;-75
2022/05/16 11:39:55;;;;;;;;;5.40;5.40;;;;;;;;5024052;28;45485;-74
2022/05/16 11:42:24;;;;;;;;;4.60;3.80;;;;;;;;5073541;27;46462;-73
2022/05/16 11:44:59;;;;;;;;;3.20;1.80;;;;;;;;5053180;28;45222;-75
2022/05/16 11:47:33;;;;;;;;;3.00;3.00;;;;;;;;5055733;28;45313;-74
2022/05/16 11:50:09;;;;;;;;;3.80;2.60;;;;;;;;5052189;28;45678;-75
2022/05/16 11:52:43;;;;;;;;;4.20;4.20;;;;;;;;5052311;28;46497;-75
2022/05/16 12:00:53;;;;;;;;;3.80;2.00;;;;;;;;5051602;28;45407;-73
2022/05/16 12:03:20;;;;;;;;;2.40;2.40;;;;;;;;5050587;28;45664;-74
2022/05/16 12:05:45;;;;;;;;;1.00;1.00;;;;;;;;5055662;28;46998;-74
2022/05/16 12:08:15;;;;;;;;;2.00;2.00;;;;;;;;5051308;28;45521;-74
2022/05/16 12:10:55;;;;;;;;;0.40;0.40;;;;;;;;5053139;28;45236;-73
2022/05/16 12:13:28;;;;;;;;;3.00;3.00;;;;;;;;5047213;28;47466;-75
2022/05/16 12:16:12;;;;;;;;;4.00;2.80;;;;;;;;5058506;28;46021;-75
2022/05/16 12:18:39;;;;;;;;;6.80;2.60;;;;;;;;5053437;28;45394;-75
2022/05/16 12:21:06;;;;;;;;;2.40;2.40;;;;;;;;5055651;28;45525;-75
2022/05/16 12:23:44;;;;;;;;;0.00;0.00;;;;;;;;5051334;28;46132;-75
2022/05/16 12:26:09;;;;;;;;;2.80;2.40;;;;;;;;5074230;28;47297;-75
2022/05/16 12:28:34;;;;;;;;;2.00;2.00;;;;;;;;5052325;28;45332;-75
2022/05/16 12:31:00;;;;;;;;;2.25;2.25;;;;;;;;5058357;28;45553;-75
2022/05/16 12:33:49;;;;;;;;;2.20;2.20;;;;;;;;5052638;28;46536;-75
2022/05/16 12:36:21;;;;;;;;;3.40;3.40;;;;;;;;5044909;28;46224;-75
2022/05/16 12:38:54;;;;;;;;;5.40;2.00;;;;;;;;5055253;28;45402;-75
2022/05/16 12:41:44;;;;;;;;;4.60;3.40;;;;;;;;5061110;28;45416;-75
2022/05/16 12:44:22;;;;;;;;;5.60;3.20;;;;;;;;5053768;28;45557;-73
2022/05/16 12:47:06;;;;;;;;;1.40;1.40;;;;;;;;5058888;28;47267;-75
2022/05/16 12:49:37;;;;;;;;;2.00;2.00;;;;;;;;5053889;28;45665;-76
2022/05/16 12:52:05;;;;;;;;;2.00;2.00;;;;;;;;5056083;28;45343;-75
2022/05/16 12:54:58;;;;;;;;;2.80;2.00;;;;;;;;5055522;28;45390;-75
2022/05/16 12:57:29;;;;;;;;;2.20;2.20;;;;;;;;5056592;28;47376;-74
2022/05/16 12:59:57;;;;;;;;;2.80;1.80;;;;;;;;5056402;28;45497;-75
2022/05/16 13:02:41;;;;;;;;;4.00;1.40;;;;;;;;5056801;28;45470;-75
2022/05/16 13:05:25;;;;;;;;;1.80;1.00;;;;;;;;5058444;28;45249;-75
2022/05/16 13:08:07;;;;;;;;;4.40;2.20;;;;;;;;5054480;28;45308;-75
2022/05/16 13:10:51;;;;;;;;;1.20;1.20;;;;;;;;5041391;28;45359;-75
2022/05/16 13:13:37;;;;;;;;;1.60;1.60;;;;;;;;5054949;28;45462;-75
2022/05/16 13:16:16;;;;;;;;;2.00;2.00;;;;;;;;5059085;28;46860;-76
2022/05/16 13:18:51;;;;;;;;;1.20;1.20;;;;;;;;5052053;28;48630;-75
2022/05/16 13:21:17;;;;;;;;;1.20;1.20;;;;;;;;5058103;28;46260;-74
2022/05/16 13:23:42;;;;;;;;;1.00;1.00;;;;;;;;5058180;28;45371;-75
2022/05/16 13:31:48;;;;;;;;;4.00;1.20;;;;;;;;5049348;28;45268;-75
2022/05/16 13:34:14;;;;;;;;;2.40;2.40;;;;;;;;5050584;28;45277;-74
2022/05/16 13:36:43;;;;;;;;;1.60;0.80;;;;;;;;5058815;28;45930;-75
2022/05/16 13:39:11;;;;;;;;;1.80;1.80;;;;;;;;5050958;28;47301;-75
2022/05/16 13:41:37;;;;;;;;;1.00;1.00;;;;;;;;5052239;28;45332;-75
2022/05/16 13:44:03;;;;;;;;;1.00;1.00;;;;;;;;5053401;28;45414;-75
2022/05/16 13:46:29;;;;;;;;;1.00;1.00;;;;;;;;5058817;28;45400;-75
2022/05/16 13:49:00;;;;;;;;;1.75;1.75;;;;;;;;5053146;28;45643;-75
2022/05/16 13:51:26;;;;;;;;;1.00;1.00;;;;;;;;5052041;28;45263;-75
2022/05/16 13:53:51;;;;;;;;;0.20;0.20;;;;;;;;5053028;28;45530;-75
2022/05/16 13:56:33;;;;;;;;;1.25;1.00;;;;;;;;5059404;28;45220;-75
2022/05/16 13:58:59;;;;;;;;;2.80;0.80;;;;;;;;5050396;28;46062;-74
2022/05/16 14:01:24;;;;;;;;;0.75;0.50;;;;;;;;5062196;28;45286;-74
2022/05/16 14:03:55;;;;;;;;;0.50;0.50;;;;;;;;5053054;28;45442;-74
2022/05/16 14:06:28;;;;;;;;;0.00;0.00;;;;;;;;5059094;28;45536;-74
2022/05/16 14:08:59;;;;;;;;;1.60;1.60;;;;;;;;5048942;28;47260;-74
2022/05/16 14:11:25;;;;;;;;;1.00;1.00;;;;;;;;5055864;28;45300;-74
2022/05/16 14:13:54;;;;;;;;;0.50;0.50;;;;;;;;5054471;28;45497;-74
2022/05/16 14:16:25;;;;;;;;;1.00;0.00;;;;;;;;5055681;28;45491;-74
2022/05/16 14:18:58;;;;;;;;;0.20;0.20;;;;;;;;5050060;28;48447;-74
2022/05/16 14:21:26;;;;;;;;;0.00;0.00;;;;;;;;5057522;28;45359;-74
2022/05/16 14:23:58;;;;;;;;;1.00;1.00;;;;;;;;5057050;28;45390;-75
2022/05/16 14:26:24;;;;;;;;;0.60;0.60;;;;;;;;5057422;28;46274;-75
2022/05/16 14:28:52;;;;;;;;;0.00;0.00;;;;;;;;5049104;28;45387;-75
2022/05/16 14:31:20;;;;;;;;;0.00;0.00;;;;;;;;5058796;28;45332;-76
2022/05/16 14:33:53;;;;;;;;;1.00;1.00;;;;;;;;5049783;28;45362;-75
2022/05/16 14:36:26;;;;;;;;;0.80;0.80;;;;;;;;5057487;28;46219;-76
2022/05/16 14:38:52;;;;;;;;;0.40;0.40;;;;;;;;5050023;28;46164;-76
2022/05/16 14:41:27;;;;;;;;;0.20;0.20;;;;;;;;5059298;28;45279;-76
2022/05/16 14:44:03;;;;;;;;;0.80;0.80;;;;;;;;5052355;28;45338;-76
2022/05/16 14:46:42;;;;;;;;;1.00;0.00;;;;;;;;5049987;28;45406;-75
2022/05/16 14:49:07;;;;;;;;;0.00;0.00;;;;;;;;5052124;28;46404;-75
2022/05/16 14:51:33;;;;;;;;;0.00;0.00;;;;;;;;5058867;28;45288;-76
2022/05/16 14:54:00;;;;;;;;;0.00;0.00;;;;;;;;5052743;28;45294;-76
2022/05/16 14:56:29;;;;;;;;;3.20;0.80;;;;;;;;5052515;28;45291;-76
2022/05/16 14:58:54;;;;;;;;;0.00;0.00;;;;;;;;5048654;28;45301;-77
2022/05/16 15:04:03;;;;;;;;;1.80;0.00;;;;;;;;5051803;28;45424;-77
2022/05/16 15:06:28;;;;;;;;;0.50;0.50;;;;;;;;5058665;28;45355;-77
2022/05/16 15:08:55;;;;;;;;;0.50;0.50;;;;;;;;5052803;28;46657;-77
2022/05/16 15:11:22;;;;;;;;;0.00;0.00;;;;;;;;5054780;28;45885;-77
2022/05/16 15:13:48;;;;;;;;;0.00;0.00;;;;;;;;5053696;28;45549;-76
2022/05/16 15:16:13;;;;;;;;;0.25;0.25;;;;;;;;5055440;28;45357;-77
2022/05/16 15:18:38;;;;;;;;;0.00;0.00;;;;;;;;5054385;28;46088;-76
2022/05/16 15:21:04;;;;;;;;;1.00;1.00;;;;;;;;5056740;28;45242;-76